Time;durP1;ratioP1;P1;durP2;ratioP2;P2;SDS_P1;SDS_P2;PMS_P1;PMS_P2;Temp;Humidity;BMP_temperature;BMP_pressure;BME280_temperature;BME280_humidity;BME280_pressure;Samples;Min_cycle;Max_cycle;Signal;HPM_P1;HPM_P2
2021/12/06 00:01:02;;;;;;;170.68;63.33;;;2.00;99.90;;;;;;4454662;27;657053;-72
2021/12/06 00:03:53;;;;;;;173.10;65.30;;;2.00;99.90;;;;;;4455630;27;656191;-72
2021/12/06 00:06:42;;;;;;;211.70;72.83;;;2.00;99.90;;;;;;4466859;27;656622;-73
2021/12/06 00:09:31;;;;;;;185.60;67.60;;;2.00;99.90;;;;;;4476258;27;656521;-72
2021/12/06 00:12:18;;;;;;;167.90;63.77;;;2.00;99.90;;;;;;4484654;27;656984;-73
2021/12/06 00:15:09;;;;;;;189.10;66.23;;;2.10;99.90;;;;;;4463909;27;656652;-72
2021/12/06 00:17:57;;;;;;;218.23;70.70;;;2.00;99.90;;;;;;4468021;27;656556;-73
2021/12/06 00:20:44;;;;;;;221.07;70.07;;;2.10;99.90;;;;;;4480656;27;657031;-72
2021/12/06 00:23:32;;;;;;;209.03;68.17;;;2.10;99.90;;;;;;4452847;27;657360;-72
2021/12/06 00:26:20;;;;;;;214.05;69.15;;;2.10;99.90;;;;;;4487164;27;656775;-72
2021/12/06 00:29:09;;;;;;;207.20;65.00;;;2.00;99.90;;;;;;4459564;27;658225;-73
2021/12/06 00:31:58;;;;;;;256.93;67.50;;;2.00;99.90;;;;;;4464400;27;657316;-73
2021/12/06 00:34:46;;;;;;;182.30;63.27;;;2.00;99.90;;;;;;4467106;27;657033;-72
2021/12/06 00:37:42;;;;;;;196.23;65.40;;;2.00;99.90;;;;;;4483055;27;656971;-72
2021/12/06 00:40:31;;;;;;;205.90;69.10;;;2.00;99.90;;;;;;4453356;27;656822;-73
2021/12/06 00:43:19;;;;;;;197.53;71.03;;;2.00;99.90;;;;;;4453568;27;657821;-72
2021/12/06 00:46:07;;;;;;;212.43;70.20;;;2.00;99.90;;;;;;4462923;27;656849;-73
2021/12/06 00:48:56;;;;;;;183.47;65.87;;;2.00;99.90;;;;;;4479014;27;656742;-72
2021/12/06 00:51:43;;;;;;;185.67;64.93;;;2.00;99.90;;;;;;4458394;27;656830;-72
2021/12/06 00:54:34;;;;;;;179.77;65.00;;;2.00;99.90;;;;;;4458129;27;657470;-73
2021/12/06 00:57:22;;;;;;;200.23;66.67;;;2.00;99.90;;;;;;4460560;27;656284;-72
2021/12/06 01:00:12;;;;;;;205.13;68.10;;;2.00;99.90;;;;;;4487617;27;656597;-72
2021/12/06 01:03:00;;;;;;;209.83;70.20;;;2.00;99.90;;;;;;4458614;27;657304;-72
2021/12/06 01:05:49;;;;;;;239.83;67.87;;;2.00;99.90;;;;;;4462726;27;657185;-72
2021/12/06 01:08:37;;;;;;;212.27;65.63;;;1.90;99.90;;;;;;4460746;27;656797;-72
2021/12/06 01:11:24;;;;;;;237.23;67.30;;;1.80;99.90;;;;;;4478843;27;656555;-72
2021/12/06 01:14:12;;;;;;;176.87;64.17;;;1.70;99.90;;;;;;4457468;27;656848;-73
2021/12/06 01:16:59;;;;;;;188.33;65.73;;;1.70;99.90;;;;;;4478532;27;657506;-72
2021/12/06 01:19:47;;;;;;;210.37;65.73;;;1.70;99.90;;;;;;4458600;27;658326;-72
2021/12/06 01:22:44;;;;;;;206.60;63.80;;;1.70;99.90;;;;;;4476631;27;656543;-73
2021/12/06 01:25:38;;;;;;;194.73;65.00;;;1.70;99.90;;;;;;4429705;27;657476;-72
2021/12/06 01:29:03;;;;;;;192.27;66.10;;;1.70;99.90;;;;;;4461831;27;656131;-72
2021/12/06 01:31:57;;;;;;;183.03;64.50;;;1.70;99.90;;;;;;4438707;27;657134;-72
2021/12/06 01:40:56;;;;;;;190.63;57.87;;;1.70;99.90;;;;;;4439806;27;656649;-72
2021/12/06 01:44:12;;;;;;;226.83;58.80;;;1.60;99.90;;;;;;4477627;27;657177;-72
2021/12/06 01:47:04;;;;;;;193.48;58.08;;;1.60;99.90;;;;;;4450758;27;657831;-72
2021/12/06 01:49:53;;;;;;;204.53;64.07;;;1.60;99.90;;;;;;4464229;27;656813;-73
2021/12/06 01:52:42;;;;;;;240.87;61.70;;;1.60;99.90;;;;;;4454367;27;656617;-72
2021/12/06 01:55:33;;;;;;;243.83;59.77;;;1.60;99.90;;;;;;4483141;27;656588;-73
2021/12/06 01:58:20;;;;;;;208.90;59.50;;;1.50;99.90;;;;;;4457667;27;656283;-72
2021/12/06 02:01:08;;;;;;;187.03;58.83;;;1.50;99.90;;;;;;4488139;27;656659;-73
2021/12/06 02:03:56;;;;;;;198.10;57.00;;;1.50;99.90;;;;;;4468892;27;656706;-73
2021/12/06 02:06:43;;;;;;;253.67;59.93;;;1.60;99.90;;;;;;4487259;27;657693;-73
2021/12/06 02:09:31;;;;;;;296.10;61.57;;;1.60;99.90;;;;;;4459786;27;656837;-73
2021/12/06 02:12:20;;;;;;;211.07;58.80;;;1.50;99.90;;;;;;4486575;27;657757;-72
2021/12/06 02:15:22;;;;;;;269.17;60.17;;;1.60;99.90;;;;;;4463789;27;658604;-72
2021/12/06 02:18:15;;;;;;;235.65;59.15;;;1.50;99.90;;;;;;4460332;27;657071;-73
2021/12/06 02:21:12;;;;;;;235.10;62.27;;;1.60;99.90;;;;;;4441379;27;657330;-72
2021/12/06 02:24:02;;;;;;;264.87;61.33;;;1.60;99.90;;;;;;4455823;27;656723;-73
2021/12/06 02:26:53;;;;;;;346.90;64.53;;;1.60;99.90;;;;;;4483116;27;656440;-73
2021/12/06 02:29:41;;;;;;;303.07;61.10;;;1.60;99.90;;;;;;4463636;27;656804;-73
2021/12/06 02:32:29;;;;;;;214.90;59.23;;;1.60;99.90;;;;;;4486613;27;657153;-73
2021/12/06 02:35:19;;;;;;;482.83;86.50;;;1.60;99.90;;;;;;4465551;27;656589;-73
2021/12/06 02:38:08;;;;;;;287.07;78.03;;;1.60;99.90;;;;;;4473446;27;656725;-73
2021/12/06 02:40:56;;;;;;;335.17;74.83;;;1.60;99.90;;;;;;4472679;27;656812;-73
2021/12/06 02:43:43;;;;;;;237.60;68.97;;;1.60;99.90;;;;;;4488815;27;657398;-73
2021/12/06 02:46:31;;;;;;;222.83;67.53;;;1.70;99.90;;;;;;4467854;27;656427;-73
2021/12/06 02:49:18;;;;;;;214.43;68.80;;;1.70;99.90;;;;;;4487645;27;658287;-73
2021/12/06 02:52:07;;;;;;;281.13;69.63;;;1.70;99.90;;;;;;4471679;27;656316;-73
2021/12/06 02:54:58;;;;;;;310.77;69.80;;;1.70;99.90;;;;;;4490628;27;656906;-73
2021/12/06 02:57:47;;;;;;;534.33;75.50;;;1.70;99.90;;;;;;4453542;27;656893;-72
2021/12/06 03:00:34;;;;;;;442.37;70.47;;;1.70;99.90;;;;;;4487452;27;657397;-72
2021/12/06 03:03:22;;;;;;;336.13;66.60;;;1.80;99.90;;;;;;4471370;27;657049;-73
2021/12/06 03:06:11;;;;;;;457.03;69.30;;;1.80;99.90;;;;;;4485938;27;656430;-73
2021/12/06 03:09:06;;;;;;;667.40;74.20;;;1.80;99.90;;;;;;4467882;27;657828;-73
2021/12/06 03:11:56;;;;;;;320.97;61.10;;;1.80;99.90;;;;;;4453701;27;656655;-73
2021/12/06 03:14:50;;;;;;;432.70;64.53;;;1.80;99.90;;;;;;4462967;27;657293;-73
2021/12/06 03:17:37;;;;;;;556.63;64.70;;;1.70;99.90;;;;;;4439176;27;657204;-73
2021/12/06 03:20:26;;;;;;;481.93;66.77;;;1.70;99.90;;;;;;4486422;27;657229;-73
2021/12/06 03:23:13;;;;;;;317.97;59.70;;;1.70;99.90;;;;;;4490869;27;656593;-73
2021/12/06 03:26:01;;;;;;;465.10;63.33;;;1.60;99.90;;;;;;4469108;27;656808;-73
2021/12/06 03:28:50;;;;;;;310.97;57.10;;;1.60;99.90;;;;;;4487381;27;657595;-72
2021/12/06 03:31:38;;;;;;;342.70;60.40;;;1.60;99.90;;;;;;4462900;27;657010;-72
2021/12/06 03:34:26;;;;;;;295.80;59.45;;;1.60;99.90;;;;;;4465310;27;657061;-73
2021/12/06 03:37:14;;;;;;;224.67;58.53;;;1.60;99.90;;;;;;4484059;27;656441;-72
2021/12/06 03:40:01;;;;;;;171.80;51.50;;;1.60;99.90;;;;;;4463400;27;656274;-72
2021/12/06 03:42:49;;;;;;;164.47;50.53;;;1.60;99.90;;;;;;4481392;27;656492;-72
2021/12/06 03:45:38;;;;;;;173.70;51.73;;;1.50;99.90;;;;;;4461733;27;656399;-72
2021/12/06 03:48:26;;;;;;;158.93;49.67;;;1.50;99.90;;;;;;4465836;27;656807;-72
2021/12/06 03:51:13;;;;;;;162.53;50.93;;;1.40;99.90;;;;;;4481952;27;657569;-73
2021/12/06 03:54:01;;;;;;;138.40;47.20;;;1.40;99.90;;;;;;4463215;27;656636;-73
2021/12/06 03:56:49;;;;;;;126.77;45.73;;;1.40;99.90;;;;;;4482317;27;658008;-72
2021/12/06 03:59:36;;;;;;;127.80;45.33;;;1.40;99.90;;;;;;4463856;27;656507;-72
2021/12/06 04:02:27;;;;;;;1831.53;109.90;;;1.40;99.90;;;;;;4485663;27;656915;-73
2021/12/06 04:05:14;;;;;;;132.47;46.53;;;1.50;99.90;;;;;;4458967;27;658780;-73
2021/12/06 04:08:02;;;;;;;122.13;44.40;;;1.50;99.90;;;;;;4466429;27;657118;-73
2021/12/06 04:10:50;;;;;;;141.07;44.93;;;1.60;99.90;;;;;;4487936;27;656901;-72
2021/12/06 04:13:37;;;;;;;137.33;43.83;;;1.50;99.90;;;;;;4460987;27;656364;-72
2021/12/06 04:16:25;;;;;;;136.77;44.50;;;1.50;99.90;;;;;;4485188;27;656859;-73
2021/12/06 04:19:15;;;;;;;141.30;44.33;;;1.50;99.90;;;;;;4480540;27;656706;-73
2021/12/06 04:22:03;;;;;;;131.47;45.57;;;1.40;99.90;;;;;;4449038;27;658079;-72
2021/12/06 04:24:51;;;;;;;146.10;44.87;;;1.50;99.90;;;;;;4453981;27;656472;-72
2021/12/06 04:27:39;;;;;;;148.00;46.80;;;1.40;99.90;;;;;;4472472;27;658173;-73
2021/12/06 04:30:26;;;;;;;173.95;45.70;;;1.40;99.90;;;;;;4451064;27;656864;-72
2021/12/06 04:33:14;;;;;;;185.60;46.90;;;1.40;99.90;;;;;;4480333;27;656582;-73
2021/12/06 04:36:05;;;;;;;147.60;45.80;;;1.40;99.90;;;;;;4464862;27;656879;-73
2021/12/06 04:38:52;;;;;;;194.20;44.20;;;1.40;99.90;;;;;;4457033;27;657633;-73
2021/12/06 04:41:41;;;;;;;182.07;44.87;;;1.40;99.90;;;;;;4476543;27;656586;-72
2021/12/06 04:44:29;;;;;;;185.77;45.60;;;1.40;99.90;;;;;;4485253;27;657355;-73
2021/12/06 04:47:17;;;;;;;420.40;49.93;;;1.40;99.90;;;;;;4463365;27;656785;-73
2021/12/06 04:50:05;;;;;;;221.00;44.47;;;1.40;99.90;;;;;;4481841;27;656439;-73
2021/12/06 04:52:55;;;;;;;159.20;39.80;;;1.40;99.90;;;;;;4457596;27;656864;-73
2021/12/06 04:55:44;;;;;;;189.63;40.20;;;1.40;99.90;;;;;;4456646;27;657980;-73
2021/12/06 04:58:35;;;;;;;174.47;39.97;;;1.40;99.90;;;;;;4465254;27;656349;-73
2021/12/06 05:01:24;;;;;;;135.87;37.43;;;1.50;99.90;;;;;;4462070;27;657052;-73
2021/12/06 05:04:13;;;;;;;137.57;39.00;;;1.50;99.90;;;;;;4464266;27;657706;-73
2021/12/06 05:07:04;;;;;;;150.87;38.70;;;1.50;99.90;;;;;;4463518;27;656451;-72
2021/12/06 05:09:53;;;;;;;175.50;38.07;;;1.50;99.90;;;;;;4465150;27;656617;-73
2021/12/06 05:12:41;;;;;;;165.23;36.57;;;1.50;99.90;;;;;;4461528;27;656687;-73
2021/12/06 05:15:29;;;;;;;198.50;37.40;;;1.50;99.90;;;;;;4486800;27;657083;-73
2021/12/06 05:18:17;;;;;;;147.17;37.27;;;1.50;99.90;;;;;;4468419;27;656572;-73
2021/12/06 05:21:04;;;;;;;135.07;34.93;;;1.50;99.90;;;;;;4485893;27;656595;-73
2021/12/06 05:23:52;;;;;;;139.87;37.00;;;1.50;99.90;;;;;;4466969;27;656858;-72
2021/12/06 05:26:41;;;;;;;122.67;33.30;;;1.50;99.90;;;;;;4483752;27;656298;-73
2021/12/06 05:29:30;;;;;;;142.00;34.23;;;1.50;99.90;;;;;;4463250;27;657790;-73
2021/12/06 05:32:18;;;;;;;132.27;32.83;;;1.50;99.90;;;;;;4465246;27;658026;-73
2021/12/06 05:35:08;;;;;;;102.70;29.55;;;1.50;99.90;;;;;;4467025;27;656746;-73
2021/12/06 05:37:56;;;;;;;89.60;28.17;;;1.50;99.90;;;;;;4467940;27;656593;-73
2021/12/06 05:40:46;;;;;;;77.00;24.40;;;1.50;99.90;;;;;;4487776;27;656215;-73
2021/12/06 05:43:36;;;;;;;92.70;25.00;;;1.50;99.90;;;;;;4459167;27;655618;-73
2021/12/06 05:46:23;;;;;;;94.87;26.00;;;1.50;99.90;;;;;;4463950;27;656666;-73
2021/12/06 05:49:11;;;;;;;92.97;23.27;;;1.40;99.90;;;;;;4465480;27;655425;-73
2021/12/06 05:51:59;;;;;;;88.03;22.67;;;1.50;99.90;;;;;;4487104;27;656799;-73
2021/12/06 05:54:46;;;;;;;68.17;20.83;;;1.50;99.90;;;;;;4462972;27;655305;-73
2021/12/06 05:57:34;;;;;;;80.47;21.53;;;1.50;99.90;;;;;;4488775;27;656032;-73
2021/12/06 06:00:27;;;;;;;90.90;21.00;;;1.50;99.90;;;;;;4467695;27;655467;-73
2021/12/06 06:03:16;;;;;;;63.00;22.23;;;1.50;99.90;;;;;;4458127;27;655983;-73
2021/12/06 06:06:04;;;;;;;65.63;21.63;;;1.50;99.90;;;;;;4488621;27;655825;-73
2021/12/06 06:08:52;;;;;;;66.00;21.20;;;1.50;99.90;;;;;;4469930;27;656021;-73
2021/12/06 06:11:41;;;;;;;65.37;21.33;;;1.50;99.90;;;;;;4490399;27;656032;-73
2021/12/06 06:14:28;;;;;;;64.87;21.10;;;1.50;99.90;;;;;;4466477;27;655995;-73
2021/12/06 06:17:19;;;;;;;72.10;21.67;;;1.50;99.90;;;;;;4472844;27;655885;-72
2021/12/06 06:20:08;;;;;;;56.50;18.83;;;1.60;99.90;;;;;;4468010;27;655808;-73
2021/12/06 06:22:56;;;;;;;67.20;20.00;;;1.50;99.90;;;;;;4472551;27;655386;-73
2021/12/06 06:25:43;;;;;;;62.37;18.50;;;1.50;99.90;;;;;;4490008;27;656242;-73
2021/12/06 06:28:31;;;;;;;53.70;17.80;;;1.50;99.90;;;;;;4473645;27;655739;-72
2021/12/06 06:31:18;;;;;;;63.87;17.93;;;1.50;99.90;;;;;;4492699;27;655629;-72
2021/12/06 06:34:08;;;;;;;42.37;15.90;;;1.50;99.90;;;;;;4471288;27;656176;-72
2021/12/06 06:36:56;;;;;;;49.03;16.23;;;1.50;99.90;;;;;;4473205;27;655132;-72
2021/12/06 06:39:44;;;;;;;41.47;15.47;;;1.50;99.90;;;;;;4489878;27;656642;-72
2021/12/06 06:42:31;;;;;;;41.27;15.47;;;1.50;99.90;;;;;;4475036;27;655529;-72
2021/12/06 06:45:20;;;;;;;45.43;14.23;;;1.50;99.90;;;;;;4488569;27;655515;-72
2021/12/06 06:48:08;;;;;;;35.73;14.10;;;1.50;99.90;;;;;;4471854;27;655937;-71
2021/12/06 06:50:57;;;;;;;39.30;13.47;;;1.50;99.90;;;;;;4478455;27;655567;-72
2021/12/06 06:53:45;;;;;;;32.23;12.63;;;1.50;99.90;;;;;;4484607;27;655807;-72
2021/12/06 06:56:32;;;;;;;29.40;12.53;;;1.50;99.90;;;;;;4455738;27;656682;-72
2021/12/06 06:59:20;;;;;;;34.73;12.60;;;1.50;99.90;;;;;;4465109;27;655657;-72
2021/12/06 07:02:08;;;;;;;28.00;11.70;;;1.50;99.90;;;;;;4475181;27;655353;-72
2021/12/06 07:04:56;;;;;;;30.37;12.10;;;1.50;99.90;;;;;;4443015;27;655844;-72
2021/12/06 07:07:45;;;;;;;29.42;12.35;;;1.50;99.90;;;;;;4455666;28;657219;-72
2021/12/06 07:10:33;;;;;;;26.10;11.17;;;1.50;99.90;;;;;;4448952;27;655966;-72
2021/12/06 07:13:21;;;;;;;30.23;10.87;;;1.50;99.90;;;;;;4436860;27;657452;-72
2021/12/06 07:16:09;;;;;;;39.50;11.73;;;1.50;99.90;;;;;;4462436;28;656088;-73
2021/12/06 07:18:57;;;;;;;32.70;11.93;;;1.50;99.90;;;;;;4440263;28;655803;-72
2021/12/06 07:21:45;;;;;;;28.10;10.77;;;1.50;99.90;;;;;;4460402;28;657304;-72
2021/12/06 07:24:34;;;;;;;28.30;10.90;;;1.50;99.90;;;;;;4438473;28;656423;-73
2021/12/06 07:27:22;;;;;;;28.80;11.23;;;1.50;99.90;;;;;;4444229;28;655292;-72
2021/12/06 07:30:11;;;;;;;34.63;11.57;;;1.50;99.90;;;;;;4468212;27;655828;-72
2021/12/06 07:32:59;;;;;;;30.00;12.13;;;1.50;99.90;;;;;;4443613;27;656633;-73
2021/12/06 07:35:47;;;;;;;30.67;11.73;;;1.50;99.90;;;;;;4447276;27;655985;-72
2021/12/06 07:38:37;;;;;;;36.00;11.77;;;1.50;99.90;;;;;;4463773;27;654960;-72
2021/12/06 07:41:28;;;;;;;38.63;11.47;;;1.50;99.90;;;;;;4433116;28;655895;-73
2021/12/06 07:44:16;;;;;;;29.37;11.50;;;1.50;99.90;;;;;;4427493;27;655940;-73
2021/12/06 07:47:04;;;;;;;32.77;11.17;;;1.50;99.90;;;;;;4468834;27;656368;-72
2021/12/06 07:49:51;;;;;;;31.93;12.53;;;1.50;99.90;;;;;;4451091;27;655962;-72
2021/12/06 07:52:39;;;;;;;31.30;10.97;;;1.50;99.90;;;;;;4469592;27;656260;-72
2021/12/06 07:55:30;;;;;;;40.30;11.82;;;1.50;99.90;;;;;;4467031;27;655917;-72
2021/12/06 07:58:19;;;;;;;34.03;12.53;;;1.50;99.90;;;;;;4463435;27;656523;-73
2021/12/06 08:01:07;;;;;;;34.40;11.17;;;1.50;99.90;;;;;;4457974;27;655783;-73
2021/12/06 08:03:55;;;;;;;37.07;13.30;;;1.60;99.90;;;;;;4487111;27;655493;-72
2021/12/06 08:06:43;;;;;;;41.27;13.70;;;1.50;99.90;;;;;;4458797;27;656009;-73
2021/12/06 08:09:31;;;;;;;39.40;12.80;;;1.40;99.90;;;;;;4463878;27;655520;-72
2021/12/06 08:12:18;;;;;;;34.17;12.73;;;1.30;99.90;;;;;;4485950;27;656279;-73
2021/12/06 08:15:09;;;;;;;38.33;12.70;;;1.30;99.90;;;;;;4461538;27;655552;-71
2021/12/06 08:17:57;;;;;;;32.63;12.07;;;1.30;99.90;;;;;;4462931;27;655788;-72
2021/12/06 08:20:44;;;;;;;41.33;11.77;;;1.40;99.90;;;;;;4484427;27;655859;-71
2021/12/06 08:23:32;;;;;;;32.50;10.87;;;1.30;99.90;;;;;;4459855;27;656707;-72
2021/12/06 08:26:21;;;;;;;34.87;11.67;;;1.30;99.90;;;;;;4480520;27;655650;-72
2021/12/06 08:29:11;;;;;;;32.83;11.47;;;1.40;99.90;;;;;;4456887;27;656892;-72
2021/12/06 08:32:00;;;;;;;29.27;10.13;;;1.40;99.90;;;;;;4457440;27;656215;-72
2021/12/06 08:34:48;;;;;;;33.27;11.60;;;1.40;99.90;;;;;;4453116;27;656318;-73
2021/12/06 08:37:36;;;;;;;29.27;10.87;;;1.40;99.90;;;;;;4473609;27;655626;-73
2021/12/06 08:40:23;;;;;;;30.43;11.47;;;1.50;99.90;;;;;;4478416;27;655530;-73
2021/12/06 08:43:16;;;;;;;30.80;10.80;;;1.40;99.90;;;;;;4462398;27;655614;-73
2021/12/06 08:46:06;;;;;;;27.93;10.93;;;1.40;99.90;;;;;;4460939;27;655460;-73
2021/12/06 08:48:56;;;;;;;28.13;10.40;;;1.40;99.90;;;;;;4459334;27;655948;-73
2021/12/06 08:51:46;;;;;;;32.10;11.30;;;1.40;99.90;;;;;;4452923;27;656393;-72
2021/12/06 08:54:34;;;;;;;25.45;11.00;;;1.40;99.90;;;;;;4456669;27;656880;-73
2021/12/06 08:57:21;;;;;;;25.73;10.93;;;1.50;99.90;;;;;;4460239;27;656265;-72
2021/12/06 09:00:11;;;;;;;27.37;11.10;;;1.50;99.90;;;;;;4478133;27;655831;-73
2021/12/06 09:02:59;;;;;;;26.80;11.00;;;1.50;99.90;;;;;;4456160;27;656778;-73
2021/12/06 09:05:49;;;;;;;25.43;10.27;;;1.60;99.90;;;;;;4462550;27;655649;-73
2021/12/06 09:08:37;;;;;;;26.50;10.43;;;1.70;99.90;;;;;;4460113;27;655885;-73
2021/12/06 09:11:25;;;;;;;25.80;9.70;;;1.80;99.90;;;;;;4482335;27;655797;-73
2021/12/06 09:14:13;;;;;;;26.30;10.67;;;1.80;99.90;;;;;;4461269;27;655983;-73
2021/12/06 09:17:01;;;;;;;22.37;10.63;;;1.90;99.90;;;;;;4463885;27;655744;-73
2021/12/06 09:19:49;;;;;;;24.17;10.33;;;2.00;99.90;;;;;;4483002;27;656015;-73
2021/12/06 09:22:38;;;;;;;24.23;10.65;;;2.00;99.90;;;;;;4457013;27;655778;-73
2021/12/06 09:25:26;;;;;;;28.57;11.23;;;2.00;99.90;;;;;;4462727;27;655392;-73
2021/12/06 09:28:14;;;;;;;23.73;11.43;;;2.10;99.90;;;;;;4479877;27;657219;-72
2021/12/06 09:31:04;;;;;;;26.48;12.07;;;2.10;99.90;;;;;;4460154;27;655954;-72
2021/12/06 09:33:51;;;;;;;28.17;11.63;;;2.20;99.90;;;;;;4462040;27;655558;-72
2021/12/06 09:36:39;;;;;;;26.50;11.93;;;2.20;99.90;;;;;;4481257;27;656568;-73
2021/12/06 09:39:28;;;;;;;26.60;12.40;;;2.30;99.90;;;;;;4463028;27;655604;-72
2021/12/06 09:42:18;;;;;;;30.23;13.30;;;2.20;99.90;;;;;;4461933;27;655536;-72
2021/12/06 09:45:11;;;;;;;27.50;12.97;;;2.30;99.90;;;;;;4465511;27;656014;-72
2021/12/06 09:48:00;;;;;;;32.30;13.67;;;2.40;99.90;;;;;;4460462;27;656686;-72
2021/12/06 09:50:50;;;;;;;34.13;12.90;;;2.30;99.90;;;;;;4459481;27;656141;-72
2021/12/06 09:53:39;;;;;;;32.47;13.93;;;2.30;99.90;;;;;;4459370;27;656832;-72
2021/12/06 09:56:31;;;;;;;34.77;14.17;;;2.40;99.90;;;;;;4455099;27;655573;-72
2021/12/06 09:59:20;;;;;;;31.63;14.70;;;2.40;99.90;;;;;;4458458;27;656519;-72
2021/12/06 10:02:09;;;;;;;35.85;15.98;;;2.40;99.90;;;;;;4459378;28;656107;-72
2021/12/06 10:04:58;;;;;;;35.97;14.93;;;2.40;99.90;;;;;;4459642;28;656315;-72
2021/12/06 10:07:46;;;;;;;30.77;14.60;;;2.30;99.90;;;;;;4472643;28;655755;-72
2021/12/06 10:10:33;;;;;;;36.63;16.23;;;2.40;99.90;;;;;;4480050;27;655468;-72
2021/12/06 10:13:23;;;;;;;36.77;16.43;;;2.30;99.90;;;;;;4455701;28;655661;-73
2021/12/06 10:16:11;;;;;;;34.53;16.10;;;2.30;99.90;;;;;;4470903;27;655796;-73
2021/12/06 10:18:59;;;;;;;40.17;17.03;;;2.30;99.90;;;;;;4485911;28;656486;-73
2021/12/06 10:21:46;;;;;;;36.57;16.47;;;2.30;99.90;;;;;;4456010;28;655578;-73
2021/12/06 10:24:34;;;;;;;41.90;17.37;;;2.30;99.90;;;;;;4481528;28;655664;-73
2021/12/06 10:27:22;;;;;;;35.30;17.23;;;2.40;99.90;;;;;;4446427;27;655896;-72
2021/12/06 10:30:12;;;;;;;37.50;17.33;;;2.30;99.90;;;;;;4465161;28;655937;-73
2021/12/06 10:33:04;;;;;;;37.17;18.27;;;2.30;99.90;;;;;;4458102;28;656023;-72
2021/12/06 10:35:53;;;;;;;39.83;18.00;;;2.30;99.90;;;;;;4458288;28;656098;-73
2021/12/06 10:38:42;;;;;;;41.90;19.13;;;2.20;99.90;;;;;;4452331;27;655233;-72
2021/12/06 10:41:31;;;;;;;38.83;16.87;;;2.20;99.90;;;;;;4465349;28;655601;-72
2021/12/06 10:44:19;;;;;;;42.17;17.93;;;2.00;99.90;;;;;;4451734;28;655729;-73
2021/12/06 10:47:13;;;;;;;46.47;18.30;;;2.00;99.90;;;;;;4464776;28;655818;-73
2021/12/06 10:50:15;;;;;;;45.20;19.83;;;1.80;99.90;;;;;;4437113;28;656401;-72
2021/12/06 10:53:03;;;;;;;39.70;18.20;;;1.80;99.90;;;;;;4457526;28;655434;-71
2021/12/06 10:55:52;;;;;;;41.40;17.73;;;1.80;99.90;;;;;;4446378;28;655565;-72
2021/12/06 10:58:41;;;;;;;42.97;18.57;;;1.80;99.90;;;;;;4462508;28;655703;-72
2021/12/06 11:01:31;;;;;;;45.17;19.97;;;1.80;99.90;;;;;;4480111;27;656285;-72
2021/12/06 11:04:25;;;;;;;42.83;19.60;;;1.80;99.90;;;;;;4450799;27;656575;-72
2021/12/06 11:07:12;;;;;;;45.40;19.73;;;1.70;99.90;;;;;;4456264;27;655976;-73
2021/12/06 11:10:04;;;;;;;53.37;20.93;;;1.70;99.90;;;;;;4478257;27;655406;-73
2021/12/06 11:13:17;;;;;;;47.83;19.80;;;1.70;99.90;;;;;;4459805;27;655469;-73
2021/12/06 11:16:08;;;;;;;47.50;19.87;;;1.70;99.90;;;;;;4456639;27;656005;-72
2021/12/06 11:18:56;;;;;;;45.87;18.33;;;1.60;99.90;;;;;;4440347;27;656306;-72
2021/12/06 11:21:46;;;;;;;44.42;17.95;;;1.60;99.90;;;;;;4482941;27;656662;-71
2021/12/06 11:24:38;;;;;;;47.60;20.20;;;1.60;99.90;;;;;;4452288;27;655788;-73
2021/12/06 11:27:27;;;;;;;47.57;20.27;;;1.50;99.90;;;;;;4433861;27;655912;-71
2021/12/06 11:30:16;;;;;;;55.13;20.43;;;1.50;99.90;;;;;;4480677;27;655790;-72
2021/12/06 11:33:04;;;;;;;42.03;18.30;;;1.50;99.90;;;;;;4454506;27;656245;-72
2021/12/06 11:35:52;;;;;;;49.67;20.00;;;1.50;99.90;;;;;;4453973;27;655691;-73
2021/12/06 11:38:41;;;;;;;44.83;18.27;;;1.50;99.90;;;;;;4479123;27;656634;-71
2021/12/06 11:41:29;;;;;;;48.80;18.37;;;1.50;99.90;;;;;;4459749;27;655346;-71
2021/12/06 11:44:20;;;;;;;46.10;18.90;;;1.50;99.90;;;;;;4465683;27;656328;-72
2021/12/06 11:47:09;;;;;;;45.67;17.43;;;1.40;99.90;;;;;;4453291;27;656882;-72
2021/12/06 11:49:57;;;;;;;40.07;17.73;;;1.40;99.90;;;;;;4459135;27;655631;-71
2021/12/06 11:52:46;;;;;;;38.63;17.03;;;1.40;99.90;;;;;;4483882;27;655328;-73
2021/12/06 11:55:35;;;;;;;37.23;15.63;;;1.30;99.90;;;;;;4479012;27;656261;-72
2021/12/06 11:58:25;;;;;;;43.77;18.67;;;1.30;99.90;;;;;;4463964;27;656596;-73
2021/12/06 12:01:13;;;;;;;38.13;17.80;;;1.40;99.90;;;;;;4457747;27;657314;-73
2021/12/06 12:04:02;;;;;;;44.20;17.97;;;1.40;99.90;;;;;;4467150;27;655592;-72
2021/12/06 12:06:51;;;;;;;40.22;17.88;;;1.30;99.90;;;;;;4483701;27;655426;-72
2021/12/06 12:09:39;;;;;;;42.63;18.30;;;1.40;99.90;;;;;;4457038;27;656160;-72
2021/12/06 12:12:29;;;;;;;41.90;18.23;;;1.40;99.90;;;;;;4464279;27;655856;-72
2021/12/06 12:15:17;;;;;;;40.97;17.90;;;1.40;99.90;;;;;;4458604;27;655796;-73
2021/12/06 12:18:05;;;;;;;38.23;17.30;;;1.40;99.90;;;;;;4482693;27;654985;-71
2021/12/06 12:20:54;;;;;;;40.27;17.17;;;1.40;99.90;;;;;;4457387;27;655898;-73
2021/12/06 12:23:42;;;;;;;38.87;16.23;;;1.30;99.90;;;;;;4463837;27;655995;-72
2021/12/06 12:26:31;;;;;;;35.30;15.27;;;1.30;99.90;;;;;;4487014;27;655867;-73
2021/12/06 12:29:25;;;;;;;39.53;15.97;;;1.30;99.90;;;;;;4488843;27;656787;-72
2021/12/06 12:32:13;;;;;;;35.33;14.87;;;1.30;99.90;;;;;;4461517;27;655878;-71
2021/12/06 12:38:44;;;;;;;41.17;16.37;;;1.20;99.90;;;;;;4463783;27;656009;-73
2021/12/06 12:41:34;;;;;;;37.97;16.87;;;1.20;99.90;;;;;;4452805;27;655532;-73
2021/12/06 12:44:23;;;;;;;37.87;16.77;;;1.20;99.90;;;;;;4465994;27;655673;-73
2021/12/06 12:47:16;;;;;;;39.10;17.07;;;1.30;99.90;;;;;;4456533;27;655658;-73
2021/12/06 12:50:10;;;;;;;38.97;16.45;;;1.30;99.90;;;;;;4459261;27;656118;-73
2021/12/06 12:53:00;;;;;;;49.93;16.83;;;1.30;99.90;;;;;;4445736;27;655872;-73
2021/12/06 12:55:49;;;;;;;40.87;16.77;;;1.40;99.90;;;;;;4444228;28;656549;-73
2021/12/06 12:58:37;;;;;;;41.17;17.23;;;1.30;99.90;;;;;;4465703;27;656239;-72
2021/12/06 13:01:27;;;;;;;41.57;17.93;;;1.30;99.90;;;;;;4477859;27;655716;-71
2021/12/06 13:04:15;;;;;;;43.47;17.57;;;1.20;99.90;;;;;;4444015;28;656348;-72
2021/12/06 13:07:14;;;;;;;42.30;17.83;;;1.20;99.90;;;;;;4459568;27;655803;-72
2021/12/06 13:10:27;;;;;;;39.07;17.40;;;1.20;99.90;;;;;;4421202;28;655932;-71
2021/12/06 13:13:19;;;;;;;37.88;15.88;;;1.10;99.90;;;;;;4452171;27;655911;-73
2021/12/06 13:16:11;;;;;;;41.90;16.73;;;1.20;99.90;;;;;;4434147;27;656319;-72
2021/12/06 13:19:05;;;;;;;41.23;17.27;;;1.20;99.90;;;;;;4467285;27;656884;-72
2021/12/06 13:22:11;;;;;;;39.97;17.07;;;1.10;99.90;;;;;;4462460;27;655765;-73
2021/12/06 13:24:59;;;;;;;42.03;17.97;;;1.00;99.90;;;;;;4459077;27;656200;-72
2021/12/06 13:27:56;;;;;;;45.80;19.10;;;1.10;99.90;;;;;;4461915;27;655116;-72
2021/12/06 13:30:45;;;;;;;46.23;18.20;;;1.10;99.90;;;;;;4459450;27;655979;-72
2021/12/06 13:33:36;;;;;;;36.47;15.90;;;1.10;99.90;;;;;;4462106;27;656577;-73
2021/12/06 13:39:41;;;;;;;36.67;16.70;;;1.20;99.90;;;;;;4854540;27;1497869;-72
2021/12/06 13:42:38;;;;;;;33.03;15.03;;;1.30;99.90;;;;;;4352710;28;652446;-73
2021/12/06 13:45:27;;;;;;;35.63;16.10;;;1.30;99.90;;;;;;4335259;28;651657;-73
2021/12/06 13:48:18;;;;;;;37.40;16.63;;;1.30;99.90;;;;;;4373156;28;650745;-73
2021/12/06 13:51:37;;;;;;;32.87;15.83;;;1.20;99.90;;;;;;4339575;28;651022;-73
2021/12/06 13:54:28;;;;;;;36.03;16.50;;;1.20;99.90;;;;;;4350910;28;651776;-72
2021/12/06 13:57:18;;;;;;;37.50;15.77;;;1.20;99.90;;;;;;4341949;28;652256;-71
2021/12/06 14:00:11;;;;;;;33.27;15.47;;;1.10;99.90;;;;;;4347541;28;652460;-73
2021/12/06 14:03:00;;;;;;;33.43;15.57;;;1.00;99.90;;;;;;4347719;28;653513;-72
2021/12/06 14:05:49;;;;;;;33.33;14.83;;;0.90;99.90;;;;;;4346620;28;653774;-73
2021/12/06 14:08:37;;;;;;;31.70;14.27;;;0.90;99.90;;;;;;4347630;28;653500;-73
2021/12/06 14:11:26;;;;;;;29.93;15.00;;;0.80;99.90;;;;;;4345451;28;653276;-73
2021/12/06 14:14:15;;;;;;;32.17;14.57;;;0.80;99.90;;;;;;4349614;28;654810;-74
2021/12/06 14:17:03;;;;;;;34.27;14.53;;;0.80;99.90;;;;;;4331008;28;654258;-74
2021/12/06 14:19:52;;;;;;;31.27;14.47;;;0.70;99.90;;;;;;4328322;28;653547;-74
2021/12/06 14:22:39;;;;;;;31.03;13.87;;;0.70;99.90;;;;;;4383564;28;654109;-73
2021/12/06 14:25:27;;;;;;;34.43;15.37;;;0.70;99.90;;;;;;4386765;28;653571;-74
2021/12/06 14:28:16;;;;;;;34.63;13.87;;;0.60;99.90;;;;;;4393416;28;653492;-74